Terminal Aerodrome Forecast
Issued by NWS

Home | Current Version | Previous Version | Text Only | Print | Product List | Glossary On
Versions: 1 2 3 4 5 6 7 8 9 10 11 12 13 14 15 16 17 18 19 20 21 22 23 24 25 26 27 28 29
879
FTUS41 KPBZ 231542 AAB
TAFFKL
TAF AMD
KFKL 231542Z 2316/2412 13013KT 4SM -RA BR OVC003 WS020/22035KT
     FM232300 23006KT P6SM VCSH OVC008 WS020/22040KT
     FM240600 29005KT P6SM OVC003=

USA.gov is the U.S. government's official web portal to all federal, state and local government web resources and services.